Time;durP1;ratioP1;P1;durP2;ratioP2;P2;SDS_P1;SDS_P2;PMS_P1;PMS_P2;Temp;Humidity;BMP_temperature;BMP_pressure;BME280_temperature;BME280_humidity;BME280_pressure;Samples;Min_cycle;Max_cycle;Signal;HPM_P1;HPM_P2
2021/12/15 00:01:28;;;;;;;145.38;54.67;;;;;;;2.63;100.00;100162.44;4005470;88;28586;-75
2021/12/15 00:07:29;;;;;;;141.97;53.13;;;;;;;2.73;100.00;100155.23;3965935;88;28492;-75
2021/12/15 00:13:31;;;;;;;146.70;55.98;;;;;;;2.82;100.00;100154.83;3951387;89;28513;-74
2021/12/15 00:19:33;;;;;;;152.72;56.33;;;;;;;2.78;100.00;100156.11;3967327;89;28532;-76
2021/12/15 00:25:40;;;;;;;132.00;50.80;;;;;;;2.74;100.00;100146.28;4001154;88;28508;-75
2021/12/15 00:31:42;;;;;;;137.20;51.48;;;;;;;2.76;100.00;100150.12;3997680;88;28453;-77
2021/12/15 00:37:45;;;;;;;140.35;52.55;;;;;;;2.75;100.00;100149.78;3978878;88;28519;-75
2021/12/15 00:43:47;;;;;;;160.65;59.80;;;;;;;2.83;100.00;100163.62;3956438;90;28595;-76
2021/12/15 00:49:48;;;;;;;159.15;58.60;;;;;;;2.85;100.00;100177.58;3996311;89;28536;-74
2021/12/15 00:55:50;;;;;;;149.95;55.05;;;;;;;2.88;100.00;100182.61;4001512;88;28581;-74
2021/12/15 01:01:52;;;;;;;140.00;53.20;;;;;;;2.77;100.00;100176.53;3999591;88;28497;-74
2021/12/15 01:07:54;;;;;;;147.82;53.52;;;;;;;2.86;100.00;100176.59;3957084;90;28488;-73
2021/12/15 01:20:28;;;;;;;158.40;59.13;;;;;;;2.98;100.00;100182.03;4013324;89;28535;-75
2021/12/15 01:26:30;;;;;;;151.18;55.95;;;;;;;2.97;100.00;100167.56;3971332;88;28533;-73
2021/12/15 01:32:31;;;;;;;153.78;54.70;;;;;;;2.93;100.00;100161.71;3982228;88;28504;-73
2021/12/15 01:38:36;;;;;;;142.25;52.00;;;;;;;2.89;100.00;100162.51;4017789;88;28476;-73
2021/12/15 01:50:58;;;;;;;155.52;55.73;;;;;;;3.02;100.00;100171.42;4017422;87;28573;-73
2021/12/15 01:57:01;;;;;;;151.20;53.17;;;;;;;3.03;100.00;100168.28;4000927;88;28521;-74
2021/12/15 02:03:03;;;;;;;146.53;53.40;;;;;;;3.01;100.00;100171.56;4004427;88;28536;-74
2021/12/15 02:09:07;;;;;;;137.05;49.88;;;;;;;2.96;100.00;100162.72;3950791;88;28562;-74
2021/12/15 02:15:17;;;;;;;156.63;54.30;;;;;;;2.99;100.00;100171.73;3999604;89;28527;-74
2021/12/15 02:21:25;;;;;;;144.68;52.10;;;;;;;3.08;100.00;100165.98;3974649;89;28519;-74
2021/12/15 02:27:32;;;;;;;132.37;48.38;;;;;;;3.11;100.00;100166.18;3998576;89;28505;-75
2021/12/15 02:39:38;;;;;;;123.30;43.63;;;;;;;3.05;100.00;100167.63;3976362;89;28500;-76
2021/12/15 02:45:40;;;;;;;126.97;44.88;;;;;;;3.01;100.00;100183.04;3948665;90;28596;-76
2021/12/15 02:51:45;;;;;;;131.70;47.15;;;;;;;3.03;100.00;100181.06;3960515;89;28482;-74
2021/12/15 02:57:48;;;;;;;126.65;44.30;;;;;;;3.06;100.00;100182.07;3987476;89;28531;-74
2021/12/15 03:16:35;;;;;;;111.15;39.50;;;;;;;3.20;100.00;100217.08;3939647;90;28496;-76
2021/12/15 03:22:38;;;;;;;109.48;41.02;;;;;;;3.21;100.00;100221.41;3970382;88;28482;-75
2021/12/15 03:35:18;;;;;;;110.75;38.80;;;;;;;3.16;100.00;100211.71;3966675;89;28539;-75
2021/12/15 03:41:10;;;;;;;104.87;36.10;;;;;;;3.22;100.00;100216.42;3976571;88;28547;-75
2021/12/15 03:47:20;;;;;;;103.97;35.88;;;;;;;3.23;100.00;100226.06;4016403;89;28565;-73
2021/12/15 03:53:24;;;;;;;101.42;37.20;;;;;;;3.30;100.00;100221.81;3977021;88;28576;-73
2021/12/15 03:59:28;;;;;;;104.38;38.25;;;;;;;3.41;100.00;100234.01;3981439;88;28570;-73
2021/12/15 04:05:29;;;;;;;95.32;35.52;;;;;;;3.38;100.00;100248.95;3965917;89;28594;-74
2021/12/15 04:11:34;;;;;;;89.95;35.35;;;;;;;3.37;100.00;100241.97;3986891;89;28527;-73
2021/12/15 04:17:37;;;;;;;96.55;34.90;;;;;;;3.48;100.00;100248.84;3985703;89;28557;-73
2021/12/15 04:23:38;;;;;;;110.42;38.65;;;;;;;3.54;100.00;100245.58;3969976;89;28548;-73
2021/12/15 04:29:40;;;;;;;107.97;39.13;;;;;;;3.39;100.00;100246.63;3963973;89;28555;-73
2021/12/15 04:35:44;;;;;;;107.27;37.48;;;;;;;3.38;100.00;100248.95;4003667;89;28504;-74
2021/12/15 04:41:49;;;;;;;104.92;37.23;;;;;;;3.44;100.00;100249.67;3991357;89;28516;-75
2021/12/15 04:47:51;;;;;;;110.70;37.48;;;;;;;3.29;100.00;100257.84;3973578;89;28504;-74
2021/12/15 04:53:55;;;;;;;114.95;41.18;;;;;;;3.26;100.00;100264.80;3986182;87;28515;-74
2021/12/15 04:59:57;;;;;;;114.57;40.30;;;;;;;3.25;100.00;100277.76;3973508;88;28490;-73
2021/12/15 05:05:59;;;;;;;107.30;37.95;;;;;;;3.27;100.00;100269.95;3965247;89;28551;-74
2021/12/15 05:12:00;;;;;;;107.12;38.13;;;;;;;3.25;100.00;100271.92;3989478;89;28523;-73
2021/12/15 05:18:04;;;;;;;99.20;35.58;;;;;;;3.27;100.00;100274.45;4002453;88;28478;-73
2021/12/15 05:24:30;;;;;;;117.80;40.03;;;;;;;3.34;100.00;100276.33;3981314;89;28465;-74
2021/12/15 05:30:18;;;;;;;107.05;38.23;;;;;;;3.42;100.00;100278.73;4013048;88;28520;-73
2021/12/15 05:36:20;;;;;;;105.47;35.98;;;;;;;3.38;100.00;100277.34;3973244;89;28561;-76
2021/12/15 05:42:23;;;;;;;108.70;36.50;;;;;;;3.41;100.00;100283.70;3965676;89;28547;-73
2021/12/15 05:48:25;;;;;;;113.80;39.18;;;;;;;3.39;100.00;100275.05;3970128;88;28543;-72
2021/12/15 05:54:27;;;;;;;107.07;39.83;;;;;;;3.37;100.00;100264.56;3934328;88;28568;-73
2021/12/15 06:00:33;;;;;;;112.47;37.88;;;;;;;3.29;100.00;100280.44;3997582;88;28557;-73
2021/12/15 06:06:35;;;;;;;108.87;37.17;;;;;;;3.25;100.00;100277.76;3956559;89;28511;-73
2021/12/15 06:12:37;;;;;;;101.90;36.93;;;;;;;3.22;100.00;100285.53;3955645;89;28611;-73
2021/12/15 06:18:38;;;;;;;93.03;35.38;;;;;;;3.19;100.00;100289.83;3990402;89;28503;-72
2021/12/15 06:24:40;;;;;;;92.05;34.73;;;;;;;3.27;100.00;100298.37;4006452;89;28466;-72
2021/12/15 06:30:44;;;;;;;100.82;38.60;;;;;;;3.36;100.00;100310.75;4045212;87;28873;-73
2021/12/15 06:36:46;;;;;;;104.47;40.83;;;;;;;3.35;100.00;100315.22;4004134;88;28591;-73
2021/12/15 06:42:47;;;;;;;98.85;37.60;;;;;;;3.43;100.00;100313.62;4032123;87;28518;-73
2021/12/15 07:01:30;;;;;;;89.28;35.35;;;;;;;3.49;100.00;100336.45;3999659;87;28572;-73
2021/12/15 07:07:32;;;;;;;97.22;40.00;;;;;;;3.54;100.00;100335.99;4002130;87;28572;-73
2021/12/15 07:13:35;;;;;;;96.00;38.00;;;;;;;3.60;100.00;100346.03;3978668;88;28494;-73
2021/12/15 07:20:03;;;;;;;85.95;34.90;;;;;;;3.68;100.00;100350.58;3988188;88;28592;-71
2021/12/15 07:25:43;;;;;;;105.03;35.10;;;;;;;3.66;100.00;100339.74;3992347;88;28515;-74
2021/12/15 07:31:45;;;;;;;79.72;33.78;;;;;;;3.78;100.00;100353.65;4001646;88;28574;-74
2021/12/15 07:37:47;;;;;;;78.22;34.20;;;;;;;3.82;100.00;100370.96;3994552;87;28607;-74
2021/12/15 07:43:49;;;;;;;94.35;38.70;;;;;;;3.96;100.00;100367.77;3939706;89;28504;-74
2021/12/15 07:49:50;;;;;;;93.47;38.88;;;;;;;4.01;100.00;100370.78;3957177;88;28464;-73
2021/12/15 07:55:53;;;;;;;94.62;37.40;;;;;;;4.00;100.00;100381.57;3952929;88;28486;-77
2021/12/15 08:01:55;;;;;;;87.50;37.95;;;;;;;4.15;100.00;100392.02;3961723;88;28502;-75
2021/12/15 08:07:57;;;;;;;85.95;37.35;;;;;;;4.10;100.00;100412.11;3994404;87;28539;-77
2021/12/15 08:13:58;;;;;;;91.63;39.63;;;;;;;4.16;100.00;100412.80;4009937;87;28471;-75
2021/12/15 08:20:00;;;;;;;92.75;40.73;;;;;;;4.23;100.00;100401.88;4010241;87;28481;-77
2021/12/15 08:26:02;;;;;;;85.92;37.70;;;;;;;4.30;100.00;100402.08;4008628;87;28480;-76
2021/12/15 08:32:04;;;;;;;91.00;37.80;;;;;;;4.29;100.00;100425.23;3960383;88;28574;-77
2021/12/15 08:38:08;;;;;;;85.92;37.30;;;;;;;4.45;100.00;100415.66;3969896;88;28519;-76
2021/12/15 08:44:10;;;;;;;92.72;39.75;;;;;;;4.48;100.00;100418.52;3993403;87;28487;-78
2021/12/15 08:50:16;;;;;;;96.90;43.20;;;;;;;4.71;100.00;100414.31;3988064;87;28532;-78
2021/12/15 08:56:18;;;;;;;107.43;41.55;;;;;;;4.70;100.00;100422.48;4014643;87;28567;-75
2021/12/15 09:02:20;;;;;;;97.95;42.25;;;;;;;4.67;100.00;100430.28;3983293;88;28510;-77
2021/12/15 09:08:24;;;;;;;92.80;40.92;;;;;;;4.63;100.00;100445.41;3974827;88;28544;-77
2021/12/15 09:14:26;;;;;;;90.83;37.88;;;;;;;4.60;100.00;100439.89;3972231;88;28474;-72
2021/12/15 09:20:32;;;;;;;93.45;39.90;;;;;;;4.69;100.00;100436.28;3965496;88;28567;-74
2021/12/15 09:26:35;;;;;;;88.87;36.25;;;;;;;4.56;100.00;100431.89;3962830;89;28542;-72
2021/12/15 09:32:37;;;;;;;92.20;35.48;;;;;;;4.68;100.00;100435.10;4019614;88;28523;-75
2021/12/15 09:38:42;;;;;;;87.90;35.70;;;;;;;4.68;100.00;100441.77;3953750;88;28491;-75
2021/12/15 09:44:45;;;;;;;100.75;40.05;;;;;;;4.54;100.00;100430.70;3973471;88;28490;-75
2021/12/15 09:57:46;;;;;;;92.62;35.73;;;;;;;4.57;100.00;100412.25;4003445;88;28537;-76
2021/12/15 10:03:47;;;;;;;93.17;35.78;;;;;;;4.64;100.00;100405.78;4005717;88;28501;-73
2021/12/15 10:22:47;;;;;;;91.67;35.48;;;;;;;4.74;100.00;100413.16;3998459;87;28633;-76
2021/12/15 10:28:52;;;;;;;85.12;33.33;;;;;;;4.80;100.00;100409.87;3995006;88;28532;-83
2021/12/15 10:35:19;;;;;;;84.40;32.45;;;;;;;4.86;100.00;100406.55;3948780;88;28503;-83
2021/12/15 10:41:34;;;;;;;98.85;36.58;;;;;;;4.96;100.00;100404.27;3944849;89;28631;-84
2021/12/15 10:47:43;;;;;;;87.53;35.07;;;;;;;4.90;100.00;100409.74;3951194;89;28567;-80
2021/12/15 10:53:46;;;;;;;78.72;33.08;;;;;;;4.86;100.00;100396.41;3950040;89;28543;-82
2021/12/15 10:59:52;;;;;;;89.07;34.50;;;;;;;4.94;100.00;100371.61;3948110;89;28576;-81
2021/12/15 11:05:54;;;;;;;81.93;34.67;;;;;;;5.00;100.00;100372.31;3949832;88;28491;-83
2021/12/15 11:12:10;;;;;;;90.28;38.58;;;;;;;5.05;100.00;100368.65;4014734;88;28481;-82
2021/12/15 11:18:23;;;;;;;86.70;38.45;;;;;;;5.02;100.00;100367.13;4001449;87;28516;-79
2021/12/15 11:24:30;;;;;;;81.10;34.65;;;;;;;5.08;100.00;100374.16;3913882;90;28584;-80
2021/12/15 11:30:53;;;;;;;81.65;34.15;;;;;;;5.05;100.00;100368.65;4041510;87;28472;-78
2021/12/15 11:36:55;;;;;;;83.60;35.00;;;;;;;5.03;100.00;100362.65;3989062;88;28546;-79
2021/12/15 11:42:58;;;;;;;81.22;35.83;;;;;;;5.05;100.00;100357.14;3998777;89;28545;-81
2021/12/15 11:49:13;;;;;;;87.75;36.25;;;;;;;5.03;100.00;100349.32;4029133;88;28487;-79
2021/12/15 11:55:30;;;;;;;70.28;29.37;;;;;;;5.11;100.00;100345.83;3976982;89;28496;-79
2021/12/15 12:01:50;;;;;;;72.97;31.65;;;;;;;5.05;100.00;100336.66;3932774;89;28594;-82
2021/12/15 12:07:58;;;;;;;69.22;29.60;;;;;;;5.21;100.00;100347.86;3933192;89;28585;-78
2021/12/15 12:14:00;;;;;;;77.87;31.27;;;;;;;5.14;100.00;100352.16;3986356;88;28580;-77
2021/12/15 12:20:19;;;;;;;72.10;31.02;;;;;;;5.08;100.00;100356.32;3989071;87;28509;-80
2021/12/15 12:26:27;;;;;;;65.12;29.35;;;;;;;5.09;100.00;100350.50;3912199;90;28579;-79
2021/12/15 12:32:24;;;;;;;68.67;30.02;;;;;;;5.11;100.00;100356.02;3977726;88;28505;-79
2021/12/15 12:38:29;;;;;;;80.70;33.55;;;;;;;5.26;100.00;100353.55;3982148;88;28546;-78
2021/12/15 12:44:36;;;;;;;77.22;33.30;;;;;;;5.27;100.00;100353.03;3985746;88;28495;-78
2021/12/15 12:57:53;;;;;;;70.95;31.65;;;;;;;5.18;100.00;100352.20;4014244;88;28500;-78
2021/12/15 13:03:34;;;;;;;68.95;29.45;;;;;;;5.27;100.00;100329.88;4002043;88;44530;-82
2021/12/15 13:09:50;;;;;;;70.32;30.72;;;;;;;5.25;100.00;100330.52;3977329;88;28482;-80
2021/12/15 13:15:59;;;;;;;61.93;27.27;;;;;;;5.18;100.00;100315.35;3982463;88;28484;-80
2021/12/15 13:22:20;;;;;;;53.40;23.55;;;;;;;5.15;100.00;100321.84;3990335;88;28511;-79
2021/12/15 13:35:04;;;;;;;47.25;21.80;;;;;;;5.38;100.00;100330.56;3989222;88;28530;-77
2021/12/15 13:41:36;;;;;;;48.63;21.80;;;;;;;5.35;100.00;100328.20;3946253;89;28478;-79
2021/12/15 13:47:29;;;;;;;51.05;22.87;;;;;;;5.37;100.00;100343.56;3949801;89;28511;-83
2021/12/15 13:53:32;;;;;;;46.40;20.52;;;;;;;5.33;100.00;100352.39;3951174;89;28571;-76
2021/12/15 13:59:39;;;;;;;47.67;21.25;;;;;;;5.19;100.00;100365.86;3948148;89;28610;-78
2021/12/15 14:06:08;;;;;;;49.63;21.60;;;;;;;5.26;100.00;100375.37;3952061;88;28544;-78
2021/12/15 14:12:09;;;;;;;50.12;22.58;;;;;;;5.07;100.00;100379.98;3942265;88;28529;-79
2021/12/15 14:18:30;;;;;;;55.90;24.43;;;;;;;5.18;100.00;100380.19;3949619;88;28502;-79
2021/12/15 14:24:34;;;;;;;57.53;25.43;;;;;;;5.23;100.00;100377.86;3946802;88;28457;-77
2021/12/15 14:30:38;;;;;;;59.30;25.17;;;;;;;5.22;100.00;100372.19;3947913;88;28487;-76
2021/12/15 14:36:44;;;;;;;52.45;21.97;;;;;;;5.09;100.00;100379.31;3946780;88;28540;-80
2021/12/15 14:42:46;;;;;;;59.95;24.07;;;;;;;5.06;100.00;100382.83;3995886;87;28576;-77
2021/12/15 14:49:13;;;;;;;51.37;23.15;;;;;;;5.18;100.00;100384.19;3949771;88;28496;-78
2021/12/15 14:55:20;;;;;;;57.17;24.90;;;;;;;5.25;100.00;100385.70;3946154;88;28504;-77
2021/12/15 15:01:22;;;;;;;60.38;24.57;;;;;;;5.28;100.00;100394.22;3948296;88;28512;-80
2021/12/15 15:07:31;;;;;;;58.02;25.25;;;;;;;5.20;100.00;100395.52;3953348;89;28514;-78
2021/12/15 15:13:32;;;;;;;55.60;23.30;;;;;;;5.08;100.00;100392.31;3915651;90;28525;-78
2021/12/15 15:19:50;;;;;;;54.38;24.23;;;;;;;5.13;100.00;100399.34;3921199;90;28560;-77
2021/12/15 15:25:42;;;;;;;58.13;25.88;;;;;;;5.22;100.00;100410.86;3915043;90;28514;-79
2021/12/15 15:31:44;;;;;;;59.50;25.27;;;;;;;5.28;100.00;100409.37;3852341;91;28490;-80
2021/12/15 15:37:46;;;;;;;55.88;24.30;;;;;;;5.12;100.00;100416.33;3912424;90;28540;-81
2021/12/15 15:43:56;;;;;;;53.78;24.50;;;;;;;5.14;100.00;100418.34;3914897;90;28549;-78
2021/12/15 15:50:02;;;;;;;52.93;22.58;;;;;;;5.13;100.00;100412.67;3903265;90;28553;-75
2021/12/15 15:56:17;;;;;;;49.23;22.82;;;;;;;5.15;100.00;100406.67;3844807;91;28561;-78
2021/12/15 16:02:19;;;;;;;52.95;23.60;;;;;;;5.21;100.00;100407.86;3899268;90;28621;-77
2021/12/15 16:08:21;;;;;;;58.00;26.12;;;;;;;5.18;100.00;100408.67;3944124;88;28495;-76
2021/12/15 16:14:25;;;;;;;53.13;23.42;;;;;;;5.11;100.00;100412.48;3945703;89;28499;-75
2021/12/15 16:20:59;;;;;;;56.00;23.92;;;;;;;5.15;100.00;100412.00;4015173;87;28533;-79
2021/12/15 16:26:34;;;;;;;55.30;25.02;;;;;;;5.06;100.00;100408.15;4003665;87;28553;-80
2021/12/15 16:32:46;;;;;;;59.05;25.85;;;;;;;5.20;100.00;100412.86;3955202;89;28590;-79
2021/12/15 16:38:54;;;;;;;62.00;27.48;;;;;;;5.19;100.00;100416.52;3941755;89;28500;-80
2021/12/15 16:44:59;;;;;;;64.15;27.15;;;;;;;5.17;100.00;100410.52;3991200;88;28557;-75
2021/12/15 16:51:06;;;;;;;51.37;23.47;;;;;;;5.13;100.00;100407.34;3959260;88;28562;-79
2021/12/15 16:57:17;;;;;;;51.30;23.85;;;;;;;5.13;100.00;100408.67;4014579;87;28541;-79
2021/12/15 17:03:18;;;;;;;59.80;24.65;;;;;;;5.13;100.00;100407.82;4006755;87;28653;-78
2021/12/15 17:09:36;;;;;;;58.23;27.20;;;;;;;5.26;100.00;100408.70;3992902;87;28564;-81
2021/12/15 17:21:49;;;;;;;61.80;26.55;;;;;;;5.24;100.00;100410.70;4004145;87;28521;-78
2021/12/15 17:28:08;;;;;;;55.45;25.02;;;;;;;5.19;100.00;100401.00;4006368;87;28509;-77
2021/12/15 17:34:25;;;;;;;51.58;23.32;;;;;;;5.12;100.00;100403.00;3987845;87;28595;-78
2021/12/15 17:40:27;;;;;;;50.08;23.65;;;;;;;5.11;100.00;100401.82;3978407;88;28518;-76
2021/12/15 17:46:33;;;;;;;59.25;28.27;;;;;;;5.14;100.00;100405.48;3988115;88;28554;-78
2021/12/15 17:52:49;;;;;;;53.40;23.98;;;;;;;5.18;100.00;100400.19;3987730;88;28536;-76
2021/12/15 17:58:50;;;;;;;46.92;23.15;;;;;;;5.24;100.00;100403.52;3999725;87;28526;-75
2021/12/15 18:04:55;;;;;;;47.05;23.40;;;;;;;5.20;100.00;100395.52;4003176;87;28517;-76
2021/12/15 18:11:06;;;;;;;46.58;22.27;;;;;;;5.15;100.00;100399.16;3947150;88;28561;-75
2021/12/15 18:17:10;;;;;;;43.25;21.55;;;;;;;5.29;100.00;100393.22;3946987;88;28521;-77
2021/12/15 18:23:13;;;;;;;48.63;23.45;;;;;;;5.35;100.00;100386.39;3946445;89;28550;-77
2021/12/15 18:29:16;;;;;;;47.23;23.30;;;;;;;5.33;100.00;100391.06;3950324;88;28509;-74
2021/12/15 18:35:18;;;;;;;52.05;23.98;;;;;;;5.36;100.00;100392.06;3960364;88;28571;-75
2021/12/15 18:41:25;;;;;;;55.38;25.05;;;;;;;5.32;100.00;100392.06;3962273;88;28567;-77
2021/12/15 18:47:25;;;;;;;51.58;24.77;;;;;;;5.25;100.00;100386.52;3957493;88;28521;-78
2021/12/15 18:53:33;;;;;;;49.05;24.92;;;;;;;5.29;100.00;100375.87;3948612;89;28605;-76
2021/12/15 18:59:37;;;;;;;53.70;26.42;;;;;;;5.32;100.00;100377.88;3950769;89;28516;-78
2021/12/15 19:05:40;;;;;;;54.05;27.30;;;;;;;5.33;100.00;100384.88;3946848;88;28499;-76
2021/12/15 19:11:42;;;;;;;50.70;25.40;;;;;;;5.27;100.00;100401.88;3914794;89;28486;-75
2021/12/15 19:17:44;;;;;;;45.05;23.62;;;;;;;5.29;100.00;100403.88;3906458;89;28500;-76
2021/12/15 19:23:47;;;;;;;41.48;21.90;;;;;;;5.33;100.00;100409.73;3902410;89;28528;-75
2021/12/15 19:29:53;;;;;;;41.83;22.10;;;;;;;5.45;100.00;100407.57;3941366;89;28550;-80
2021/12/15 19:35:56;;;;;;;45.40;23.00;;;;;;;5.50;100.00;100414.59;3881869;90;28534;-79
2021/12/15 19:41:59;;;;;;;41.68;21.25;;;;;;;5.49;100.00;100407.59;3880620;90;28487;-78
2021/12/15 19:48:02;;;;;;;36.85;19.27;;;;;;;5.40;100.00;100413.39;3938008;89;28524;-78
2021/12/15 19:54:06;;;;;;;38.45;19.65;;;;;;;5.50;100.00;100417.75;3891153;90;28585;-81
2021/12/15 20:00:11;;;;;;;37.73;19.75;;;;;;;5.58;100.00;100421.78;3884051;90;28536;-80
2021/12/15 20:06:13;;;;;;;41.85;22.07;;;;;;;5.54;100.00;100432.45;3907622;90;28537;-77
2021/12/15 20:12:20;;;;;;;36.23;18.90;;;;;;;5.54;100.00;100443.94;3994364;88;28486;-78
2021/12/15 20:18:22;;;;;;;35.48;19.17;;;;;;;5.56;100.00;100437.13;3993397;88;28528;-78
2021/12/15 20:24:30;;;;;;;40.35;20.08;;;;;;;5.61;100.00;100421.44;3996884;88;28517;-79
2021/12/15 20:30:32;;;;;;;34.88;18.90;;;;;;;5.65;100.00;100418.80;3990549;88;28453;-79
2021/12/15 20:36:33;;;;;;;36.05;19.82;;;;;;;5.61;100.00;100418.77;3985688;88;28545;-79
2021/12/15 20:42:35;;;;;;;36.03;18.27;;;;;;;5.60;100.00;100411.77;3981549;88;28492;-78
2021/12/15 20:48:37;;;;;;;37.23;19.55;;;;;;;5.61;100.00;100420.62;3920724;89;28524;-78
2021/12/15 20:54:40;;;;;;;35.63;18.62;;;;;;;5.61;100.00;100430.77;3907318;89;28556;-83
2021/12/15 21:00:45;;;;;;;35.55;18.82;;;;;;;5.64;100.00;100425.13;3908830;90;28513;-81
2021/12/15 21:06:52;;;;;;;39.95;21.45;;;;;;;5.76;100.00;100410.13;3913959;89;28513;-84
2021/12/15 21:12:55;;;;;;;41.55;21.77;;;;;;;5.68;100.00;100407.78;3981446;88;28507;-81
2021/12/15 21:18:58;;;;;;;38.42;20.62;;;;;;;5.68;100.00;100408.30;3979833;88;28538;-82
2021/12/15 21:25:02;;;;;;;42.43;21.12;;;;;;;5.62;100.00;100406.28;4012117;87;28595;-79
2021/12/15 21:31:07;;;;;;;38.50;19.98;;;;;;;5.63;100.00;100424.80;3976429;88;28495;-81
2021/12/15 21:37:08;;;;;;;44.20;22.45;;;;;;;5.66;100.00;100434.28;3977684;88;28533;-79
2021/12/15 21:43:11;;;;;;;44.03;23.65;;;;;;;5.53;100.00;100446.80;4020456;87;28527;-77
2021/12/15 21:49:14;;;;;;;44.48;22.40;;;;;;;5.52;100.00;100453.09;4016549;87;28505;-78
2021/12/15 21:55:22;;;;;;;41.95;21.80;;;;;;;5.63;100.00;100449.30;3976344;88;28531;-78
2021/12/15 22:01:24;;;;;;;43.10;20.97;;;;;;;5.56;100.00;100429.93;3967369;88;28511;-76
2021/12/15 22:07:25;;;;;;;43.13;22.70;;;;;;;5.56;100.00;100421.93;3972823;88;28509;-76
2021/12/15 22:13:28;;;;;;;46.70;23.32;;;;;;;5.64;100.00;100441.63;3967135;87;28570;-76
2021/12/15 22:19:29;;;;;;;40.52;21.97;;;;;;;5.55;100.00;100442.94;3971097;88;28519;-76
2021/12/15 22:25:32;;;;;;;41.10;21.52;;;;;;;5.57;100.00;100440.97;3969557;88;28502;-75
2021/12/15 22:31:36;;;;;;;41.45;21.20;;;;;;;5.54;100.00;100431.94;3982865;88;28550;-76
2021/12/15 22:37:37;;;;;;;45.28;22.87;;;;;;;5.62;100.00;100427.63;4017272;87;28522;-75
2021/12/15 22:43:42;;;;;;;49.53;24.35;;;;;;;5.68;100.00;100424.31;4013944;87;28455;-73
2021/12/15 22:49:47;;;;;;;45.12;22.50;;;;;;;5.51;100.00;100413.59;3975377;88;28527;-77
2021/12/15 22:55:48;;;;;;;38.80;19.90;;;;;;;5.57;100.00;100408.95;4012958;88;28513;-76
2021/12/15 23:01:58;;;;;;;40.00;19.80;;;;;;;5.64;100.00;100405.12;4033967;87;28508;-76
2021/12/15 23:08:00;;;;;;;40.70;20.62;;;;;;;5.71;100.00;100399.95;3984849;88;28563;-76
2021/12/15 23:14:01;;;;;;;52.08;24.23;;;;;;;5.75;100.00;100415.95;3907447;89;28522;-76
2021/12/15 23:20:11;;;;;;;41.90;20.85;;;;;;;5.50;100.00;100409.27;3942564;89;28562;-77
2021/12/15 23:26:16;;;;;;;46.90;23.47;;;;;;;5.53;100.00;100414.78;4002361;89;28525;-75
2021/12/15 23:32:26;;;;;;;49.05;24.07;;;;;;;5.61;100.00;100418.77;3986349;88;28473;-75
2021/12/15 23:38:41;;;;;;;54.25;26.42;;;;;;;5.45;100.00;100434.25;4004106;89;28497;-76
